Time;durP1;ratioP1;P1;durP2;ratioP2;P2;SDS_P1;SDS_P2;PMS_P1;PMS_P2;Temp;Humidity;BMP_temperature;BMP_pressure;BME280_temperature;BME280_humidity;BME280_pressure;Samples;Min_cycle;Max_cycle;Signal;HPM_P1;HPM_P2
2023/08/07 00:02:06;;;;;;;;;;;;;;;-144.99;nan;52368.59;4971171;28;20444;-62
2023/08/07 00:04:33;;;;;;;;;;;;;;;-144.99;nan;52374.72;4967304;28;20406;-61
2023/08/07 00:06:59;;;;;;;;;;;;;;;-144.99;nan;52333.94;4969323;28;20347;-61
2023/08/07 00:09:27;;;;;;;;;;;;;;;-144.99;nan;52395.09;4963946;28;20323;-62
2023/08/07 00:11:54;;;;;;;;;;;;;;;-144.99;nan;52380.84;4965827;28;19963;-62
2023/08/07 00:14:20;;;;;;;;;;;;;;;-144.99;nan;52358.41;4963630;28;20022;-63
2023/08/07 00:16:47;;;;;;;;;;;;;;;-144.99;nan;52340.06;4967350;28;19954;-63
2023/08/07 00:19:13;;;;;;;;;;;;;;;-144.99;nan;52407.31;4963573;28;20059;-63
2023/08/07 00:21:39;;;;;;;;;;;;;;;-144.99;nan;52370.63;4971133;28;19967;-61
2023/08/07 00:24:06;;;;;;;;;;;;;;;-144.99;nan;52433.81;4973014;28;20042;-61
2023/08/07 00:26:34;;;;;;;;;;;;;;;-144.99;nan;52370.63;4973999;28;19964;-62
2023/08/07 00:29:00;;;;;;;;;;;;;;;-144.99;nan;52370.63;4964033;28;19948;-62
2023/08/07 00:31:30;;;;;;;;;;;;;;;-144.99;nan;52380.84;4962528;28;19974;-61
2023/08/07 00:33:57;;;;;;;;;;;;;;;-144.99;nan;52368.59;4966389;28;19981;-62
2023/08/07 00:36:23;;;;;;;;;;;;;;;-144.99;nan;52391.03;4968126;28;19996;-62
2023/08/07 00:38:51;;;;;;;;;;;;;;;-144.99;nan;52419.56;4967807;28;19952;-62
2023/08/07 00:41:17;;;;;;;;;;;;;;;-144.99;nan;52346.19;4977977;28;19968;-63
2023/08/07 00:43:45;;;;;;;;;;;;;;;-144.99;nan;52382.88;4965800;28;20033;-61
2023/08/07 00:46:12;;;;;;;;;;;;;;;-144.99;nan;52382.88;4963715;28;20375;-66
2023/08/07 00:48:38;;;;;;;;;;;;;;;-144.99;nan;52403.25;4972821;28;19998;-66
2023/08/07 00:51:07;;;;;;;;;;;;;;;-144.99;nan;52391.03;4975412;28;20061;-64
2023/08/07 00:53:34;;;;;;;;;;;;;;;-144.99;nan;52425.66;4971161;28;20307;-64
2023/08/07 00:56:02;;;;;;;;;;;;;;;-144.99;nan;52384.91;4972178;28;19952;-64
2023/08/07 00:58:29;;;;;;;;;;;;;;;-144.99;nan;52403.25;4968371;28;19949;-65
2023/08/07 01:00:57;;;;;;;;;;;;;;;-144.99;nan;52378.78;4962038;28;19952;-64
2023/08/07 01:03:24;;;;;;;;;;;;;;;-144.99;nan;52386.94;4967453;28;20044;-63
2023/08/07 01:05:50;;;;;;;;;;;;;;;-144.99;nan;52399.19;4969177;28;20030;-64
2023/08/07 01:08:17;;;;;;;;;;;;;;;-144.99;nan;52407.31;4965856;28;19987;-64
2023/08/07 01:10:50;;;;;;;;;;;;;;;-144.99;nan;52413.44;4965357;28;20516;-64
2023/08/07 01:13:19;;;;;;;;;;;;;;;-144.99;nan;52364.53;4971263;28;19960;-64
2023/08/07 01:15:47;;;;;;;;;;;;;;;-144.99;nan;52405.28;4964356;28;19985;-65
2023/08/07 01:18:15;;;;;;;;;;;;;;;-144.99;nan;52374.72;4966599;28;19997;-63
2023/08/07 01:20:42;;;;;;;;;;;;;;;-144.99;nan;52382.88;4972711;28;19957;-63
2023/08/07 01:23:10;;;;;;;;;;;;;;;-144.99;nan;52374.72;4962304;28;20429;-65
2023/08/07 01:25:37;;;;;;;;;;;;;;;-144.99;nan;52366.56;4956162;28;20290;-64
2023/08/07 01:28:10;;;;;;;;;;;;;;;-144.99;nan;52415.47;4962872;28;20015;-64
2023/08/07 01:30:37;;;;;;;;;;;;;;;-144.99;nan;52374.72;4966862;28;20498;-64
2023/08/07 01:33:08;;;;;;;;;;;;;;;-144.99;nan;52435.88;4626118;28;10000033;-64
2023/08/07 01:35:37;;;;;;;;;;;;;;;-144.99;nan;52374.72;4962480;28;20321;-64
2023/08/07 01:38:04;;;;;;;;;;;;;;;-144.99;nan;52374.72;4960914;28;20026;-63
2023/08/07 01:40:32;;;;;;;;;;;;;;;-144.99;nan;52395.09;4965015;28;20065;-63
2023/08/07 01:42:59;;;;;;;;;;;;;;;-144.99;nan;52382.88;4966731;28;20042;-63
2023/08/07 01:45:26;;;;;;;;;;;;;;;-144.99;nan;52366.56;4967308;28;19948;-63
2023/08/07 01:47:53;;;;;;;;;;;;;;;-144.99;nan;52378.78;4963506;28;20005;-62
2023/08/07 01:50:19;;;;;;;;;;;;;;;-144.99;nan;52401.22;4972490;28;20166;-66
2023/08/07 01:52:46;;;;;;;;;;;;;;;-144.99;nan;52391.03;4975224;28;19995;-63
2023/08/07 01:55:13;;;;;;;;;;;;;;;-144.99;nan;52382.88;4968163;28;20392;-61
2023/08/07 01:57:41;;;;;;;;;;;;;;;-144.99;nan;52370.63;4969415;28;20452;-65
2023/08/07 02:00:08;;;;;;;;;;;;;;;-144.99;nan;52431.78;4979176;28;20002;-64
2023/08/07 02:02:35;;;;;;;;;;;;;;;-144.99;nan;52423.63;4970298;28;20058;-62
2023/08/07 02:05:01;;;;;;;;;;;;;;;-144.99;nan;52419.56;4965353;28;20400;-61
2023/08/07 02:07:28;;;;;;;;;;;;;;;-144.99;nan;52409.38;4969487;28;19971;-61
2023/08/07 02:09:54;;;;;;;;;;;;;;;-144.99;nan;52395.09;4971988;28;19996;-61
2023/08/07 02:12:21;;;;;;;;;;;;;;;-144.99;nan;52393.06;4980585;28;20014;-61
2023/08/07 02:14:48;;;;;;;;;;;;;;;-144.99;nan;52395.09;4972526;28;20401;-61
2023/08/07 02:17:15;;;;;;;;;;;;;;;-144.99;nan;52415.47;4971000;28;20001;-62
2023/08/07 02:19:41;;;;;;;;;;;;;;;-144.99;nan;52407.31;4971063;28;19952;-62
2023/08/07 02:22:08;;;;;;;;;;;;;;;-144.99;nan;52407.31;4969388;28;20475;-62
2023/08/07 02:24:34;;;;;;;;;;;;;;;-144.99;nan;52399.19;4967059;28;20048;-62
2023/08/07 02:27:01;;;;;;;;;;;;;;;-144.99;nan;52411.41;4968125;28;19943;-63
2023/08/07 02:29:27;;;;;;;;;;;;;;;-144.99;nan;52386.94;4975646;28;19958;-63
2023/08/07 02:31:55;;;;;;;;;;;;;;;-144.99;nan;52366.56;4973074;28;20030;-64
2023/08/07 02:34:22;;;;;;;;;;;;;;;-144.99;nan;52378.78;4974702;28;20039;-63
2023/08/07 02:36:48;;;;;;;;;;;;;;;-144.99;nan;52411.41;4972023;28;20001;-62
2023/08/07 02:39:15;;;;;;;;;;;;;;;-144.99;nan;52382.88;4966643;28;20035;-63
2023/08/07 02:41:41;;;;;;;;;;;;;;;-144.99;nan;52395.09;4968492;28;20464;-64
2023/08/07 02:44:08;;;;;;;;;;;;;;;-144.99;nan;52378.78;4973537;28;20008;-63
2023/08/07 02:46:35;;;;;;;;;;;;;;;-144.99;nan;52391.03;4959447;28;19955;-63
2023/08/07 02:49:04;;;;;;;;;;;;;;;-144.99;nan;52419.56;4967191;28;19951;-61
2023/08/07 02:51:31;;;;;;;;;;;;;;;-144.99;nan;52388.97;4962397;28;19976;-61
2023/08/07 02:53:57;;;;;;;;;;;;;;;-144.99;nan;52350.25;4965368;28;20002;-61
2023/08/07 02:56:24;;;;;;;;;;;;;;;-144.99;nan;52378.78;4968579;28;20045;-60
2023/08/07 02:58:50;;;;;;;;;;;;;;;-144.99;nan;52411.41;4965305;28;19954;-61
2023/08/07 03:01:17;;;;;;;;;;;;;;;-144.99;nan;52423.63;4977521;28;19964;-61
2023/08/07 03:03:43;;;;;;;;;;;;;;;-144.99;nan;52376.75;4975049;28;20022;-61
2023/08/07 03:06:11;;;;;;;;;;;;;;;-144.99;nan;52411.41;4974020;28;20015;-60
2023/08/07 03:08:37;;;;;;;;;;;;;;;-144.99;nan;52386.94;4972551;28;19947;-61
2023/08/07 03:11:04;;;;;;;;;;;;;;;-144.99;nan;52419.56;4972474;28;20005;-63
2023/08/07 03:13:30;;;;;;;;;;;;;;;-144.99;nan;52354.34;4972131;28;20401;-64
2023/08/07 03:16:00;;;;;;;;;;;;;;;-144.99;nan;52370.63;4970855;28;19943;-63
2023/08/07 03:18:27;;;;;;;;;;;;;;;-144.99;nan;52366.56;4971696;28;20025;-63
2023/08/07 03:20:53;;;;;;;;;;;;;;;-144.99;nan;52391.03;4977544;28;20028;-64
2023/08/07 03:23:21;;;;;;;;;;;;;;;-144.99;nan;52382.88;4970160;28;20093;-63
2023/08/07 03:25:47;;;;;;;;;;;;;;;-144.99;nan;52384.91;4970237;28;20240;-63
2023/08/07 03:28:14;;;;;;;;;;;;;;;-144.99;nan;52395.09;4972020;28;19988;-63
2023/08/07 03:30:41;;;;;;;;;;;;;;;-144.99;nan;52378.78;4973691;28;19983;-62
2023/08/07 03:33:07;;;;;;;;;;;;;;;-144.99;nan;52380.84;4984078;28;19965;-64
2023/08/07 03:35:34;;;;;;;;;;;;;;;-144.99;nan;52413.44;4970948;28;19949;-69
2023/08/07 03:38:00;;;;;;;;;;;;;;;-144.99;nan;52415.47;4978043;28;19967;-69
2023/08/07 03:40:28;;;;;;;;;;;;;;;-144.99;nan;52386.94;4972160;28;20008;-64
2023/08/07 03:42:54;;;;;;;;;;;;;;;-144.99;nan;52364.53;4971957;28;19981;-63
2023/08/07 03:45:21;;;;;;;;;;;;;;;-144.99;nan;52403.25;4970632;28;20051;-62
2023/08/07 03:47:47;;;;;;;;;;;;;;;-144.99;nan;52358.41;4969636;28;20309;-62
2023/08/07 03:50:14;;;;;;;;;;;;;;;-144.99;nan;52407.31;4971829;28;20007;-64
2023/08/07 03:52:40;;;;;;;;;;;;;;;-144.99;nan;52423.63;4989034;23;20060;-72
2023/08/07 03:55:07;;;;;;;;;;;;;;;-144.99;nan;52356.38;4986955;28;19962;-73
2023/08/07 03:57:35;;;;;;;;;;;;;;;-144.99;nan;52395.09;4988091;28;19946;-72
2023/08/07 04:00:02;;;;;;;;;;;;;;;-144.99;nan;52395.09;4986093;28;20009;-72
2023/08/07 04:02:30;;;;;;;;;;;;;;;-144.99;nan;52409.38;4993598;28;20022;-72
2023/08/07 04:04:56;;;;;;;;;;;;;;;-144.99;nan;52386.94;5000121;28;19952;-72
2023/08/07 04:07:22;;;;;;;;;;;;;;;-144.99;nan;52358.41;5000348;28;19950;-72
2023/08/07 04:09:49;;;;;;;;;;;;;;;-144.99;nan;52386.94;4993156;28;20033;-73
2023/08/07 04:12:15;;;;;;;;;;;;;;;-144.99;nan;52395.09;4999401;28;19965;-72
2023/08/07 04:14:43;;;;;;;;;;;;;;;-144.99;nan;52382.88;4996646;28;19945;-74
2023/08/07 04:17:09;;;;;;;;;;;;;;;-144.99;nan;52374.72;5003691;28;20137;-73
2023/08/07 04:19:36;;;;;;;;;;;;;;;-144.99;nan;52407.31;5004477;28;20003;-73
2023/08/07 04:22:02;;;;;;;;;;;;;;;-144.99;nan;52403.25;4997317;28;20056;-72
2023/08/07 04:24:29;;;;;;;;;;;;;;;-144.99;nan;52370.63;5001365;28;20050;-74
2023/08/07 04:26:55;;;;;;;;;;;;;;;-144.99;nan;52370.63;4996718;28;19947;-73
2023/08/07 04:29:21;;;;;;;;;;;;;;;-144.99;nan;52384.91;4990851;28;19980;-70
2023/08/07 04:31:49;;;;;;;;;;;;;;;-144.99;nan;52382.88;4995735;28;20001;-70
2023/08/07 04:34:16;;;;;;;;;;;;;;;-144.99;nan;52374.72;4996562;28;20059;-70
2023/08/07 04:36:42;;;;;;;;;;;;;;;-144.99;nan;52397.13;5001855;28;20395;-70
2023/08/07 04:39:08;;;;;;;;;;;;;;;-144.99;nan;52386.94;4988817;28;20083;-70
2023/08/07 04:41:35;;;;;;;;;;;;;;;-144.99;nan;52350.25;5004919;28;20425;-70
2023/08/07 04:44:01;;;;;;;;;;;;;;;-144.99;nan;52342.09;4995594;28;19977;-70
2023/08/07 04:46:28;;;;;;;;;;;;;;;-144.99;nan;52370.63;4992077;28;20731;-70
2023/08/07 04:48:56;;;;;;;;;;;;;;;-144.99;nan;52354.34;4996915;28;19947;-72
2023/08/07 04:51:22;;;;;;;;;;;;;;;-144.99;nan;52354.34;4996498;28;20039;-70
2023/08/07 04:53:50;;;;;;;;;;;;;;;-144.99;nan;52399.19;4973852;28;19969;-70
2023/08/07 04:56:17;;;;;;;;;;;;;;;-144.99;nan;52354.34;4996618;28;19949;-71
2023/08/07 04:58:43;;;;;;;;;;;;;;;-144.99;nan;52403.25;4990942;28;19960;-74
2023/08/07 05:01:09;;;;;;;;;;;;;;;-144.99;nan;52342.09;4996897;28;19957;-72
2023/08/07 05:03:36;;;;;;;;;;;;;;;-144.99;nan;52362.50;4996659;28;20080;-73
2023/08/07 05:06:04;;;;;;;;;;;;;;;-144.99;nan;52321.72;4998533;28;20387;-73
2023/08/07 05:08:30;;;;;;;;;;;;;;;-144.99;nan;52354.34;4992576;28;19957;-73
2023/08/07 05:10:56;;;;;;;;;;;;;;;-144.99;nan;52374.72;4993659;28;20412;-73
2023/08/07 05:13:23;;;;;;;;;;;;;;;-144.99;nan;52364.53;4992063;28;20049;-74
2023/08/07 05:15:49;;;;;;;;;;;;;;;-144.99;nan;52366.56;4650377;28;10000351;-75
2023/08/07 05:18:16;;;;;;;;;;;;;;;-144.99;nan;52350.25;4989375;28;20079;-72
2023/08/07 05:20:43;;;;;;;;;;;;;;;-144.99;nan;52370.63;4990867;28;19997;-75
2023/08/07 05:23:11;;;;;;;;;;;;;;;-144.99;nan;52362.50;4989140;28;19969;-75
2023/08/07 05:25:38;;;;;;;;;;;;;;;-144.99;nan;52391.03;4996058;28;19953;-76
2023/08/07 05:28:05;;;;;;;;;;;;;;;-144.99;nan;52360.44;4994697;28;20027;-73
2023/08/07 05:30:31;;;;;;;;;;;;;;;-144.99;nan;52350.25;4993439;28;19944;-76
2023/08/07 05:32:57;;;;;;;;;;;;;;;-144.99;nan;52358.41;4995046;28;20654;-72
2023/08/07 05:35:24;;;;;;;;;;;;;;;-144.99;nan;52333.94;4995900;28;20096;-76
2023/08/07 05:37:50;;;;;;;;;;;;;;;-144.99;nan;52356.38;4987346;28;19994;-75
2023/08/07 05:40:18;;;;;;;;;;;;;;;-144.99;nan;52348.22;4990120;28;20460;-75
2023/08/07 05:42:45;;;;;;;;;;;;;;;-144.99;nan;52346.19;4987440;28;20043;-76
2023/08/07 05:45:11;;;;;;;;;;;;;;;-144.99;nan;52342.09;4989613;28;20060;-75
2023/08/07 05:47:37;;;;;;;;;;;;;;;-144.99;nan;52338.03;4991811;28;20483;-74
2023/08/07 05:50:04;;;;;;;;;;;;;;;-144.99;nan;52368.59;4989155;28;20032;-74
2023/08/07 05:52:31;;;;;;;;;;;;;;;-144.99;nan;52333.94;4985251;28;20065;-73
2023/08/07 05:54:57;;;;;;;;;;;;;;;-144.99;nan;52327.84;4984989;28;19948;-74
2023/08/07 05:57:25;;;;;;;;;;;;;;;-144.99;nan;52350.25;4982198;28;20347;-74
2023/08/07 05:59:51;;;;;;;;;;;;;;;-144.99;nan;52362.50;4981719;28;19989;-74
2023/08/07 06:02:19;;;;;;;;;;;;;;;-144.99;nan;52382.88;4982125;28;19966;-74
2023/08/07 06:04:45;;;;;;;;;;;;;;;-144.99;nan;52336.00;4982509;28;20031;-74
2023/08/07 06:07:12;;;;;;;;;;;;;;;-144.99;nan;52370.63;4981790;28;20512;-74
2023/08/07 06:09:38;;;;;;;;;;;;;;;-144.99;nan;52338.03;4986635;28;19950;-74
2023/08/07 06:12:05;;;;;;;;;;;;;;;-144.99;nan;52354.34;4996602;28;20076;-74
2023/08/07 06:14:33;;;;;;;;;;;;;;;-144.99;nan;52346.19;4987597;28;19978;-74
2023/08/07 06:17:01;;;;;;;;;;;;;;;-144.99;nan;52382.88;4998202;28;19954;-73
2023/08/07 06:19:28;;;;;;;;;;;;;;;-144.99;nan;52342.09;4994515;28;20055;-73
2023/08/07 06:21:54;;;;;;;;;;;;;;;-144.99;nan;52333.94;4991225;28;19976;-72
2023/08/07 06:24:21;;;;;;;;;;;;;;;-144.99;nan;52329.88;4995716;28;20556;-73
2023/08/07 06:26:47;;;;;;;;;;;;;;;-144.99;nan;52354.34;4989404;28;20027;-73
2023/08/07 06:29:14;;;;;;;;;;;;;;;-144.99;nan;52350.25;4999737;28;19950;-75
2023/08/07 06:31:42;;;;;;;;;;;;;;;-144.99;nan;52338.03;4997873;28;20388;-73
2023/08/07 06:34:08;;;;;;;;;;;;;;;-144.99;nan;52352.28;4991456;28;20400;-74
2023/08/07 06:36:34;;;;;;;;;;;;;;;-144.99;nan;52333.94;4996403;28;20030;-75
2023/08/07 06:39:01;;;;;;;;;;;;;;;-144.99;nan;52346.19;4990134;28;19955;-75
2023/08/07 06:41:27;;;;;;;;;;;;;;;-144.99;nan;52350.25;4997718;28;20040;-76
2023/08/07 06:43:54;;;;;;;;;;;;;;;-144.99;nan;52327.84;4989298;28;19959;-74
2023/08/07 06:46:24;;;;;;;;;;;;;;;-144.99;nan;52352.28;4991965;28;20043;-73
2023/08/07 06:48:51;;;;;;;;;;;;;;;-144.99;nan;52378.78;4996495;28;20158;-74
2023/08/07 06:51:18;;;;;;;;;;;;;;;-144.99;nan;52362.50;4651665;28;10000033;-73
2023/08/07 06:53:44;;;;;;;;;;;;;;;-144.99;nan;52366.56;4987674;28;19984;-74
2023/08/07 06:56:11;;;;;;;;;;;;;;;-144.99;nan;52350.25;4991275;28;20048;-75
2023/08/07 06:58:37;;;;;;;;;;;;;;;-144.99;nan;52338.03;4997074;28;19986;-73
2023/08/07 07:01:04;;;;;;;;;;;;;;;-144.99;nan;52407.31;4999745;28;20478;-73
2023/08/07 07:03:30;;;;;;;;;;;;;;;-144.99;nan;52403.25;4993913;28;19967;-73
2023/08/07 07:05:58;;;;;;;;;;;;;;;-144.99;nan;52354.34;5003153;28;20420;-74
2023/08/07 07:08:24;;;;;;;;;;;;;;;-144.99;nan;52391.03;4997950;28;19953;-72
2023/08/07 07:10:51;;;;;;;;;;;;;;;-144.99;nan;52354.34;4995147;28;20041;-73
2023/08/07 07:13:17;;;;;;;;;;;;;;;-144.99;nan;52384.91;4992348;28;19975;-73
2023/08/07 07:15:44;;;;;;;;;;;;;;;-144.99;nan;52407.31;4996401;28;19984;-72
2023/08/07 07:18:10;;;;;;;;;;;;;;;-144.99;nan;52350.25;4986550;28;19962;-72
2023/08/07 07:20:36;;;;;;;;;;;;;;;-144.99;nan;52395.09;4991146;28;20334;-74
2023/08/07 07:23:04;;;;;;;;;;;;;;;-144.99;nan;52411.41;4984614;28;19963;-73
2023/08/07 07:25:31;;;;;;;;;;;;;;;-144.99;nan;52338.03;4996537;28;20549;-72
2023/08/07 07:27:57;;;;;;;;;;;;;;;-144.99;nan;52338.03;4989748;28;19945;-73
2023/08/07 07:30:24;;;;;;;;;;;;;;;-144.99;nan;52329.88;4975290;28;19951;-73
2023/08/07 07:32:51;;;;;;;;;;;;;;;-144.99;nan;52362.50;4985767;28;20022;-73
2023/08/07 07:35:17;;;;;;;;;;;;;;;-144.99;nan;52344.16;4989399;28;20043;-73
2023/08/07 07:37:43;;;;;;;;;;;;;;;-144.99;nan;52329.88;4987981;28;20054;-73
2023/08/07 07:40:12;;;;;;;;;;;;;;;-144.99;nan;52317.66;4989923;28;20687;-73
2023/08/07 07:42:38;;;;;;;;;;;;;;;-144.99;nan;52313.56;4985350;28;19968;-74
2023/08/07 07:45:06;;;;;;;;;;;;;;;-144.99;nan;52374.72;4984325;28;19983;-73
2023/08/07 07:47:32;;;;;;;;;;;;;;;-144.99;nan;52378.78;4992780;28;20047;-73
2023/08/07 07:50:07;;;;;;;;;;;;;;;-144.99;nan;52317.66;4984787;28;19991;-73
2023/08/07 07:52:33;;;;;;;;;;;;;;;-144.99;nan;52370.63;4982882;28;19970;-74
2023/08/07 07:55:00;;;;;;;;;;;;;;;-144.99;nan;52338.03;4987361;28;20516;-73
2023/08/07 07:57:27;;;;;;;;;;;;;;;-144.99;nan;52407.31;4997283;28;19955;-73
2023/08/07 07:59:54;;;;;;;;;;;;;;;-144.99;nan;52362.50;4999627;28;20301;-72
2023/08/07 08:02:20;;;;;;;;;;;;;;;-144.99;nan;52382.88;4992160;28;20333;-73
2023/08/07 08:04:48;;;;;;;;;;;;;;;-144.99;nan;52338.03;4996649;28;20564;-75
2023/08/07 08:07:14;;;;;;;;;;;;;;;-144.99;nan;52382.88;4993118;28;20326;-72
2023/08/07 08:09:40;;;;;;;;;;;;;;;-144.99;nan;52358.41;4993000;28;20423;-73
2023/08/07 08:12:07;;;;;;;;;;;;;;;-144.99;nan;52346.19;4988374;28;20725;-73
2023/08/07 08:14:35;;;;;;;;;;;;;;;-144.99;nan;52374.72;5007147;28;20449;-73
2023/08/07 08:17:02;;;;;;;;;;;;;;;-144.99;nan;52374.72;4989647;28;19950;-73
2023/08/07 08:19:28;;;;;;;;;;;;;;;-144.99;nan;52374.72;5004226;28;20400;-74
2023/08/07 08:21:55;;;;;;;;;;;;;;;-144.99;nan;52358.41;4994936;28;20051;-73
2023/08/07 08:24:21;;;;;;;;;;;;;;;-144.99;nan;52374.72;4996650;28;20043;-72
2023/08/07 08:26:48;;;;;;;;;;;;;;;-144.99;nan;52342.09;5004033;28;19952;-72
2023/08/07 08:29:15;;;;;;;;;;;;;;;-144.99;nan;52382.88;4992160;28;19950;-72
2023/08/07 08:31:43;;;;;;;;;;;;;;;-144.99;nan;52352.28;4988862;28;19981;-73
2023/08/07 08:34:09;;;;;;;;;;;;;;;-144.99;nan;52354.34;4999586;28;19970;-71
2023/08/07 08:36:36;;;;;;;;;;;;;;;-144.99;nan;52388.97;4999088;28;20295;-71
2023/08/07 08:39:02;;;;;;;;;;;;;;;-144.99;nan;52370.63;4998761;28;19952;-71
2023/08/07 08:41:29;;;;;;;;;;;;;;;-144.99;nan;52399.19;4993585;28;20044;-72
2023/08/07 08:43:56;;;;;;;;;;;;;;;-144.99;nan;52350.25;4997256;28;19950;-72
2023/08/07 08:46:25;;;;;;;;;;;;;;;-144.99;nan;52374.72;4994294;28;19951;-72
2023/08/07 08:48:57;;;;;;;;;;;;;;;-144.99;nan;52376.75;4999818;28;19950;-73
2023/08/07 08:51:25;;;;;;;;;;;;;;;-144.99;nan;52342.09;4997043;28;19960;-72
2023/08/07 08:53:52;;;;;;;;;;;;;;;-144.99;nan;52378.78;4989984;28;20062;-72
2023/08/07 08:56:18;;;;;;;;;;;;;;;-144.99;nan;52333.94;4994773;28;20075;-72
2023/08/07 08:58:45;;;;;;;;;;;;;;;-144.99;nan;52344.16;4986551;28;19955;-72
2023/08/07 09:01:12;;;;;;;;;;;;;;;-144.99;nan;52374.72;4988150;28;19955;-75
2023/08/07 09:03:39;;;;;;;;;;;;;;;-144.99;nan;52333.94;4991755;28;20069;-75
2023/08/07 09:06:07;;;;;;;;;;;;;;;-144.99;nan;52358.41;4997193;28;20042;-73
2023/08/07 09:08:35;;;;;;;;;;;;;;;-144.99;nan;52321.72;4996241;28;20092;-73
2023/08/07 09:11:02;;;;;;;;;;;;;;;-144.99;nan;52346.19;4993371;28;20068;-74
2023/08/07 09:13:29;;;;;;;;;;;;;;;-144.99;nan;52329.88;4989762;28;20417;-74
2023/08/07 09:15:56;;;;;;;;;;;;;;;-144.99;nan;52338.03;4997708;28;20037;-72
2023/08/07 09:18:22;;;;;;;;;;;;;;;-144.99;nan;52309.50;5002556;28;19949;-73
2023/08/07 09:20:49;;;;;;;;;;;;;;;-144.99;nan;52325.81;4998316;28;19988;-73
2023/08/07 09:23:17;;;;;;;;;;;;;;;-144.99;nan;52362.50;4994183;28;20068;-74
2023/08/07 09:25:44;;;;;;;;;;;;;;;-144.99;nan;52333.94;5000827;28;20018;-73
2023/08/07 09:28:10;;;;;;;;;;;;;;;-144.99;nan;52374.72;5000463;28;20015;-74
2023/08/07 09:30:37;;;;;;;;;;;;;;;-144.99;nan;52325.81;4991246;28;20039;-73
2023/08/07 09:33:05;;;;;;;;;;;;;;;-144.99;nan;52309.50;4989466;28;19970;-74
2023/08/07 09:35:33;;;;;;;;;;;;;;;-144.99;nan;52350.25;4995315;28;20441;-75
2023/08/07 09:37:59;;;;;;;;;;;;;;;-144.99;nan;52317.66;4991146;28;19953;-75
2023/08/07 09:40:27;;;;;;;;;;;;;;;-144.99;nan;52313.56;4999288;28;20046;-74
2023/08/07 09:42:54;;;;;;;;;;;;;;;-144.99;nan;52309.50;4988660;28;19971;-73
2023/08/07 09:45:21;;;;;;;;;;;;;;;-144.99;nan;52305.41;4989991;28;20435;-73
2023/08/07 09:47:48;;;;;;;;;;;;;;;-144.99;nan;52362.50;4991617;28;19984;-76
2023/08/07 09:50:16;;;;;;;;;;;;;;;-144.99;nan;52325.81;4996212;28;19960;-75
2023/08/07 09:52:43;;;;;;;;;;;;;;;-144.99;nan;52329.88;5004026;23;20471;-69
2023/08/07 09:55:09;;;;;;;;;;;;;;;-144.99;nan;52309.50;4977727;28;20032;-69
2023/08/07 09:57:37;;;;;;;;;;;;;;;-144.99;nan;52325.81;4986635;28;19954;-70
2023/08/07 10:00:11;;;;;;;;;;;;;;;-144.99;nan;52293.19;4985122;28;19960;-71
2023/08/07 10:02:37;;;;;;;;;;;;;;;-144.99;nan;52317.66;4977063;28;19975;-70
2023/08/07 10:05:05;;;;;;;;;;;;;;;-144.99;nan;52327.84;4982027;28;20026;-70
2023/08/07 10:07:32;;;;;;;;;;;;;;;-144.99;nan;52285.03;4974323;28;20194;-69
2023/08/07 10:09:59;;;;;;;;;;;;;;;-144.99;nan;52329.88;4976194;28;20225;-69
2023/08/07 10:12:26;;;;;;;;;;;;;;;-144.99;nan;52309.50;4978922;28;19965;-71
2023/08/07 10:14:55;;;;;;;;;;;;;;;-144.99;nan;52350.25;4974240;28;20527;-69
2023/08/07 10:17:22;;;;;;;;;;;;;;;-144.99;nan;52321.72;4981936;28;19950;-68
2023/08/07 10:19:49;;;;;;;;;;;;;;;-144.99;nan;52307.47;4971918;28;19988;-69
2023/08/07 10:22:16;;;;;;;;;;;;;;;-144.99;nan;52342.09;4980463;28;19972;-69
2023/08/07 10:24:44;;;;;;;;;;;;;;;-144.99;nan;52336.00;4972173;28;19987;-69
2023/08/07 10:27:12;;;;;;;;;;;;;;;-144.99;nan;52289.13;4976399;28;20427;-69
2023/08/07 10:29:40;;;;;;;;;;;;;;;-144.99;nan;52256.50;4973353;28;19997;-70
2023/08/07 10:32:08;;;;;;;;;;;;;;;-144.99;nan;52358.41;4972169;28;20017;-69
2023/08/07 10:34:35;;;;;;;;;;;;;;;-144.99;nan;52313.56;4969463;28;20045;-71
2023/08/07 10:37:01;;;;;;;;;;;;;;;-144.99;nan;52293.19;4972593;28;20481;-71
2023/08/07 10:39:28;;;;;;;;;;;;;;;-144.99;nan;52354.34;4956716;28;19955;-70
2023/08/07 10:41:55;;;;;;;;;;;;;;;-144.99;nan;52346.19;4978138;28;20067;-73
2023/08/07 10:44:23;;;;;;;;;;;;;;;-144.99;nan;52340.06;4969350;28;20437;-71
2023/08/07 10:46:50;;;;;;;;;;;;;;;-144.99;nan;52309.50;4967168;28;20018;-72
2023/08/07 10:49:37;;;;;;;;;;;;;;;-144.99;nan;52321.72;4969526;28;20374;-72
2023/08/07 10:52:09;;;;;;;;;;;;;;;-144.99;nan;52252.44;4971092;28;19968;-72
2023/08/07 10:54:42;;;;;;;;;;;;;;;-144.99;nan;52244.28;4976439;28;19964;-69
2023/08/07 10:57:11;;;;;;;;;;;;;;;-144.99;nan;52321.72;4975340;28;19960;-70
2023/08/07 10:59:38;;;;;;;;;;;;;;;-144.99;nan;52354.34;4979649;28;19970;-71
2023/08/07 11:02:08;;;;;;;;;;;;;;;-144.99;nan;52338.03;4980229;28;19967;-69
2023/08/07 11:04:36;;;;;;;;;;;;;;;-144.99;nan;52354.34;4980823;28;20064;-70
2023/08/07 11:07:03;;;;;;;;;;;;;;;-144.99;nan;52386.94;4972749;28;19986;-70
2023/08/07 11:09:30;;;;;;;;;;;;;;;-144.99;nan;52331.91;4978441;28;20499;-70
2023/08/07 11:11:57;;;;;;;;;;;;;;;-144.99;nan;52323.75;4979971;28;19997;-69
2023/08/07 11:14:23;;;;;;;;;;;;;;;-144.99;nan;52293.19;4960367;28;20404;-70
2023/08/07 11:16:50;;;;;;;;;;;;;;;-144.99;nan;52285.03;4964707;28;20003;-69
2023/08/07 11:19:17;;;;;;;;;;;;;;;-144.99;nan;52187.19;4984721;28;20326;-69
2023/08/07 11:21:44;;;;;;;;;;;;;;;-144.99;nan;52309.50;4981943;28;19966;-70
2023/08/07 11:24:13;;;;;;;;;;;;;;;-144.99;nan;52313.56;4977043;28;19956;-70
2023/08/07 11:26:40;;;;;;;;;;;;;;;-144.99;nan;52301.34;4974275;28;20032;-69
2023/08/07 11:29:07;;;;;;;;;;;;;;;-144.99;nan;52338.03;4979868;28;20041;-70
2023/08/07 11:31:34;;;;;;;;;;;;;;;-144.99;nan;52333.94;4972534;28;19965;-71
2023/08/07 11:34:02;;;;;;;;;;;;;;;-144.99;nan;52293.19;4972372;28;19973;-70
2023/08/07 11:36:29;;;;;;;;;;;;;;;-144.99;nan;52338.03;4972162;28;20400;-69
2023/08/07 11:38:55;;;;;;;;;;;;;;;-144.99;nan;52333.94;4979331;28;20015;-70
2023/08/07 11:41:22;;;;;;;;;;;;;;;-144.99;nan;52325.81;4975055;28;19985;-70
2023/08/07 11:43:50;;;;;;;;;;;;;;;-144.99;nan;52344.16;4970553;28;20489;-71
2023/08/07 11:46:16;;;;;;;;;;;;;;;-144.99;nan;52333.94;4972507;28;20011;-71
2023/08/07 11:48:44;;;;;;;;;;;;;;;-144.99;nan;52382.88;4982994;28;19952;-72
2023/08/07 11:51:10;;;;;;;;;;;;;;;-144.99;nan;52358.41;4973938;28;19988;-69
2023/08/07 11:53:38;;;;;;;;;;;;;;;-144.99;nan;52376.75;4975108;28;19996;-70
2023/08/07 11:56:05;;;;;;;;;;;;;;;-144.99;nan;52409.38;4976458;28;20459;-70
2023/08/07 11:58:35;;;;;;;;;;;;;;;-144.99;nan;52395.09;4976867;28;19952;-70
2023/08/07 12:01:06;;;;;;;;;;;;;;;-144.99;nan;52417.53;4976206;28;19975;-70
2023/08/07 12:03:33;;;;;;;;;;;;;;;-144.99;nan;52366.56;4968199;28;20029;-71
2023/08/07 12:06:03;;;;;;;;;;;;;;;-144.99;nan;52386.94;4957601;28;19953;-70
2023/08/07 12:08:32;;;;;;;;;;;;;;;-144.99;nan;52354.34;4982834;28;19953;-70
2023/08/07 12:10:59;;;;;;;;;;;;;;;-144.99;nan;52374.72;4974204;28;20014;-69
2023/08/07 12:13:27;;;;;;;;;;;;;;;-144.99;nan;52395.09;4960278;28;20033;-69
2023/08/07 12:15:54;;;;;;;;;;;;;;;-144.99;nan;52346.19;4973874;28;19963;-72
2023/08/07 12:18:23;;;;;;;;;;;;;;;-144.99;nan;52350.25;4979923;28;20001;-69
2023/08/07 12:20:50;;;;;;;;;;;;;;;-144.99;nan;52407.31;4984226;28;19976;-70
2023/08/07 12:23:17;;;;;;;;;;;;;;;-144.99;nan;52415.47;4972901;28;20062;-69
2023/08/07 12:25:43;;;;;;;;;;;;;;;-144.99;nan;52401.22;4977313;28;20048;-70
2023/08/07 12:28:10;;;;;;;;;;;;;;;-144.99;nan;52354.34;4979590;28;19954;-69
2023/08/07 12:30:37;;;;;;;;;;;;;;;-144.99;nan;52350.25;4976014;28;20006;-70
2023/08/07 12:33:07;;;;;;;;;;;;;;;-144.99;nan;52350.25;4979240;28;22212;-71
2023/08/07 12:35:35;;;;;;;;;;;;;;;-144.99;nan;52340.06;4967522;28;20010;-69
2023/08/07 12:38:02;;;;;;;;;;;;;;;-144.99;nan;52325.81;4980354;28;19949;-70
2023/08/07 12:40:29;;;;;;;;;;;;;;;-144.99;nan;52378.78;4973108;28;19949;-70
2023/08/07 12:42:56;;;;;;;;;;;;;;;-144.99;nan;52376.75;4975593;28;19973;-71
2023/08/07 12:45:23;;;;;;;;;;;;;;;-144.99;nan;52391.03;4968936;28;19950;-72